Time;durP1;ratioP1;P1;durP2;ratioP2;P2;SDS_P1;SDS_P2;PMS_P1;PMS_P2;Temp;Humidity;BMP_temperature;BMP_pressure;BME280_temperature;BME280_humidity;BME280_pressure;Samples;Min_cycle;Max_cycle;Signal;HPM_P1;HPM_P2
2021/12/17 00:00:17;;;;;;;52.63;22.40;;;;;;;;;;5069391;28;20428;-84
2021/12/17 00:03:34;;;;;;;60.00;23.63;;;;;;;;;;5068537;28;20400;-83
2021/12/17 00:08:15;;;;;;;49.83;22.27;;;;;;;;;;5063733;28;20391;-84
2021/12/17 00:10:42;;;;;;;45.90;22.87;;;;;;;;;;5067655;28;20454;-84
2021/12/17 00:13:11;;;;;;;51.60;24.47;;;;;;;;;;5069209;28;20465;-84
2021/12/17 00:15:38;;;;;;;54.73;24.03;;;;;;;;;;5065229;28;20892;-84
2021/12/17 00:18:12;;;;;;;64.17;25.43;;;;;;;;;;5065328;28;20472;-84
2021/12/17 00:40:03;;;;;;;55.20;22.87;;;;;;;;;;5067384;28;20561;-84
2021/12/17 00:43:50;;;;;;;56.07;25.67;;;;;;;;;;5067701;28;20516;-85
2021/12/17 00:48:36;;;;;;;76.73;26.87;;;;;;;;;;5053152;28;20484;-85
2021/12/17 00:51:42;;;;;;;73.10;25.10;;;;;;;;;;5065349;28;20846;-85
2021/12/17 00:53:58;;;;;;;63.43;24.37;;;;;;;;;;5065761;28;20923;-85
2021/12/17 00:56:28;;;;;;;54.80;25.13;;;;;;;;;;5067429;28;20414;-84
2021/12/17 00:58:54;;;;;;;54.13;25.40;;;;;;;;;;5061295;28;20571;-84
2021/12/17 01:01:20;;;;;;;65.70;25.40;;;;;;;;;;5068598;28;20384;-84
2021/12/17 01:03:46;;;;;;;54.93;24.63;;;;;;;;;;5061725;28;20388;-85
2021/12/17 01:06:12;;;;;;;61.43;25.03;;;;;;;;;;5068686;28;20772;-84
2021/12/17 01:08:38;;;;;;;50.33;24.93;;;;;;;;;;5063301;28;20456;-84
2021/12/17 01:11:05;;;;;;;54.77;23.07;;;;;;;;;;5068205;28;20384;-85
2021/12/17 01:13:32;;;;;;;52.50;24.57;;;;;;;;;;5065965;28;20457;-84
2021/12/17 01:15:59;;;;;;;50.20;25.10;;;;;;;;;;5068344;28;20384;-85
2021/12/17 01:18:42;;;;;;;56.80;25.57;;;;;;;;;;5062681;28;20424;-85
2021/12/17 01:42:23;;;;;;;40.67;22.33;;;;;;;;;;5068197;28;20388;-85
2021/12/17 01:44:49;;;;;;;54.80;23.43;;;;;;;;;;5060488;28;20536;-85
2021/12/17 01:47:15;;;;;;;49.80;22.87;;;;;;;;;;5066573;28;20418;-85
2021/12/17 02:00:23;;;;;;;37.33;20.93;;;;;;;;;;5064682;28;20465;-85
2021/12/17 02:02:55;;;;;;;42.47;20.60;;;;;;;;;;5061563;28;20947;-85
2021/12/17 02:05:21;;;;;;;54.93;24.23;;;;;;;;;;5066038;28;20892;-85
2021/12/17 02:07:50;;;;;;;57.60;25.00;;;;;;;;;;5066437;28;20372;-86
2021/12/17 02:21:24;;;;;;;56.87;25.53;;;;;;;;;;5063132;28;20396;-85
2021/12/17 02:32:10;;;;;;;51.77;26.00;;;;;;;;;;5065846;28;20387;-84
2021/12/17 02:35:02;;;;;;;52.00;25.80;;;;;;;;;;5063474;28;20474;-85
2021/12/17 02:37:30;;;;;;;46.80;23.77;;;;;;;;;;5060629;28;20471;-85
2021/12/17 02:45:35;;;;;;;58.40;25.87;;;;;;;;;;5065444;28;20412;-85
2021/12/17 02:48:01;;;;;;;46.23;23.37;;;;;;;;;;5060135;28;20416;-85
2021/12/17 02:50:27;;;;;;;45.93;22.80;;;;;;;;;;5069983;28;20432;-84
2021/12/17 02:52:57;;;;;;;43.47;20.90;;;;;;;;;;5070614;28;20930;-85
2021/12/17 02:55:23;;;;;;;51.30;24.80;;;;;;;;;;5070380;28;20400;-85
2021/12/17 02:57:58;;;;;;;58.10;23.67;;;;;;;;;;5070575;28;20739;-85
2021/12/17 03:00:24;;;;;;;47.83;26.03;;;;;;;;;;5052691;28;20463;-85
2021/12/17 03:02:51;;;;;;;39.97;22.40;;;;;;;;;;5050292;28;20435;-85
2021/12/17 03:05:17;;;;;;;40.67;20.57;;;;;;;;;;5049926;28;20474;-85
2021/12/17 03:07:46;;;;;;;48.87;23.90;;;;;;;;;;5051199;28;20418;-85
2021/12/17 03:10:14;;;;;;;42.03;19.93;;;;;;;;;;5049680;28;20509;-85
2021/12/17 03:15:25;;;;;;;53.00;25.30;;;;;;;;;;5058508;28;20450;-85
2021/12/17 03:23:39;;;;;;;40.13;22.50;;;;;;;;;;5051783;28;20428;-85
2021/12/17 03:26:02;;;;;;;35.27;20.30;;;;;;;;;;5035496;28;20447;-85
2021/12/17 03:28:29;;;;;;;35.87;19.77;;;;;;;;;;5030208;28;20601;-85
2021/12/17 03:30:55;;;;;;;42.03;20.93;;;;;;;;;;5030650;28;20899;-85
2021/12/17 03:33:24;;;;;;;35.40;17.77;;;;;;;;;;5030016;28;20448;-85
2021/12/17 03:35:54;;;;;;;48.90;21.23;;;;;;;;;;5029539;28;20435;-85
2021/12/17 03:38:20;;;;;;;37.60;20.17;;;;;;;;;;5029776;28;20469;-85
2021/12/17 03:40:47;;;;;;;32.53;17.00;;;;;;;;;;5029490;28;20514;-85
2021/12/17 03:43:21;;;;;;;43.33;21.60;;;;;;;;;;5029624;28;20821;-85
2021/12/17 03:45:47;;;;;;;37.00;17.50;;;;;;;;;;5029825;28;20542;-85
2021/12/17 03:48:16;;;;;;;27.13;16.30;;;;;;;;;;5031158;28;20495;-85
2021/12/17 03:50:42;;;;;;;37.17;18.50;;;;;;;;;;5029835;28;20415;-85
2021/12/17 03:53:13;;;;;;;34.90;19.90;;;;;;;;;;5029760;28;20518;-85
2021/12/17 03:55:39;;;;;;;28.43;17.37;;;;;;;;;;5029502;28;20447;-85
2021/12/17 03:58:08;;;;;;;30.93;19.33;;;;;;;;;;5029506;28;20477;-85
2021/12/17 04:00:34;;;;;;;39.80;18.90;;;;;;;;;;5029554;28;20557;-85
2021/12/17 04:03:09;;;;;;;35.00;19.13;;;;;;;;;;5029698;28;20430;-85
2021/12/17 04:05:44;;;;;;;36.30;20.30;;;;;;;;;;5030897;28;20430;-85
2021/12/17 04:08:11;;;;;;;34.33;18.93;;;;;;;;;;5029716;28;20946;-85
2021/12/17 04:10:44;;;;;;;32.37;19.40;;;;;;;;;;5051472;28;20450;-85
2021/12/17 04:13:25;;;;;;;36.67;20.37;;;;;;;;;;5066719;28;20800;-85
2021/12/17 04:15:57;;;;;;;40.00;18.13;;;;;;;;;;5069117;28;20511;-85
2021/12/17 04:18:24;;;;;;;34.67;19.50;;;;;;;;;;5055347;28;20943;-85
2021/12/17 04:20:54;;;;;;;36.10;19.10;;;;;;;;;;5046736;28;20426;-85
2021/12/17 04:23:20;;;;;;;33.00;19.00;;;;;;;;;;5048891;28;20396;-85
2021/12/17 04:25:50;;;;;;;30.50;19.13;;;;;;;;;;5050381;28;20405;-84
2021/12/17 04:28:22;;;;;;;33.83;19.27;;;;;;;;;;5049116;28;20413;-84
2021/12/17 04:30:57;;;;;;;33.90;19.80;;;;;;;;;;5029116;28;20483;-85
2021/12/17 04:33:23;;;;;;;36.00;20.57;;;;;;;;;;5030450;28;20407;-85
2021/12/17 04:35:49;;;;;;;34.80;20.07;;;;;;;;;;5029951;28;20956;-85
2021/12/17 04:38:22;;;;;;;31.70;19.90;;;;;;;;;;5028464;28;20423;-84
2021/12/17 04:40:51;;;;;;;38.43;19.83;;;;;;;;;;5048754;28;20909;-84
2021/12/17 04:43:40;;;;;;;41.87;19.83;;;;;;;;;;5048222;28;20415;-84
2021/12/17 04:46:25;;;;;;;35.13;18.07;;;;;;;;;;5049625;28;20430;-84
2021/12/17 04:59:48;;;;;;;33.33;17.83;;;;;;;;;;5037118;28;20493;-84
2021/12/17 05:02:16;;;;;;;34.63;18.50;;;;;;;;;;5028724;28;20406;-85
2021/12/17 05:04:43;;;;;;;39.93;19.00;;;;;;;;;;5034580;28;20469;-85
2021/12/17 05:07:12;;;;;;;31.33;15.53;;;;;;;;;;5048032;28;20424;-85
2021/12/17 05:20:52;;;;;;;35.30;18.10;;;;;;;;;;5050866;28;20473;-85
2021/12/17 05:23:24;;;;;;;25.03;16.17;;;;;;;;;;5050040;28;20420;-85
2021/12/17 05:25:51;;;;;;;30.03;16.60;;;;;;;;;;5048486;28;20462;-85
2021/12/17 05:28:17;;;;;;;27.60;16.70;;;;;;;;;;5048584;28;20411;-85
2021/12/17 05:30:46;;;;;;;27.07;17.17;;;;;;;;;;5029060;28;20418;-85
2021/12/17 05:33:22;;;;;;;23.03;16.53;;;;;;;;;;5028917;28;20542;-86
2021/12/17 05:35:49;;;;;;;27.50;16.43;;;;;;;;;;5028154;28;20554;-86
2021/12/17 05:38:18;;;;;;;25.03;15.30;;;;;;;;;;5028101;28;20436;-86
2021/12/17 05:40:47;;;;;;;20.73;13.97;;;;;;;;;;5048222;28;20454;-85
2021/12/17 05:43:15;;;;;;;24.23;15.30;;;;;;;;;;5047991;28;20509;-86
2021/12/17 05:45:50;;;;;;;23.07;15.80;;;;;;;;;;5047854;28;20504;-85
2021/12/17 05:48:18;;;;;;;24.60;15.93;;;;;;;;;;5041657;28;20509;-85
2021/12/17 05:50:51;;;;;;;20.77;13.50;;;;;;;;;;5047898;28;20501;-84
2021/12/17 05:53:17;;;;;;;23.57;14.17;;;;;;;;;;5047980;28;20502;-85
2021/12/17 05:55:43;;;;;;;27.57;14.60;;;;;;;;;;5049475;28;20426;-85
2021/12/17 05:58:15;;;;;;;18.10;13.47;;;;;;;;;;5048013;28;20487;-84
2021/12/17 06:00:42;;;;;;;22.40;13.10;;;;;;;;;;5048609;28;20458;-85
2021/12/17 06:03:10;;;;;;;18.90;12.80;;;;;;;;;;5051594;28;20423;-85
2021/12/17 06:05:37;;;;;;;18.60;11.87;;;;;;;;;;5051939;28;20446;-85
2021/12/17 06:08:12;;;;;;;21.87;13.47;;;;;;;;;;5051807;28;20418;-84
2021/12/17 06:10:39;;;;;;;20.37;13.20;;;;;;;;;;5055813;28;20406;-84
2021/12/17 06:13:07;;;;;;;21.37;13.00;;;;;;;;;;5051598;28;20434;-84
2021/12/17 06:15:33;;;;;;;20.23;13.57;;;;;;;;;;5051359;28;20623;-84
2021/12/17 06:17:59;;;;;;;22.30;14.07;;;;;;;;;;5052184;28;20437;-84
2021/12/17 06:20:25;;;;;;;20.43;13.23;;;;;;;;;;5053205;28;20976;-84
2021/12/17 06:22:52;;;;;;;25.73;14.03;;;;;;;;;;5051534;28;20415;-84
2021/12/17 06:25:19;;;;;;;20.43;13.67;;;;;;;;;;5051049;28;20438;-84
2021/12/17 06:27:45;;;;;;;27.60;13.97;;;;;;;;;;5033133;28;20865;-84
2021/12/17 06:30:24;;;;;;;21.53;12.37;;;;;;;;;;5065595;28;20871;-84
2021/12/17 06:32:50;;;;;;;22.67;13.10;;;;;;;;;;5065176;28;20480;-84
2021/12/17 06:35:16;;;;;;;21.93;13.40;;;;;;;;;;5058588;28;20440;-84
2021/12/17 06:38:06;;;;;;;17.07;10.97;;;;;;;;;;5048629;28;20389;-84
2021/12/17 06:40:32;;;;;;;18.70;13.50;;;;;;;;;;5042862;28;20456;-90
2021/12/17 06:42:58;;;;;;;17.07;12.23;;;;;;;;;;5047693;28;20442;-93
2021/12/17 06:45:53;;;;;;;20.37;12.17;;;;;;;;;;5047809;28;20474;-91
2021/12/17 06:48:14;;;;;;;17.23;12.80;;;;;;;;;;5051239;28;20472;-93
2021/12/17 07:23:23;;;;;;;19.97;13.03;;;;;;;;;;5064721;28;20414;-85
2021/12/17 07:36:09;;;;;;;22.07;13.80;;;;;;;;;;5135938;27;1266331;-85
2021/12/17 07:41:02;;;;;;;19.50;12.30;;;;;;;;;;5139547;28;20738;-85
2021/12/17 07:43:36;;;;;;;15.10;10.93;;;;;;;;;;5133944;28;20406;-85
2021/12/17 07:46:23;;;;;;;13.40;10.47;;;;;;;;;;5134563;27;20408;-84
2021/12/17 07:48:50;;;;;;;20.53;10.97;;;;;;;;;;5128140;28;20391;-84
2021/12/17 07:51:20;;;;;;;13.00;10.30;;;;;;;;;;5130006;28;20416;-84
2021/12/17 07:53:46;;;;;;;17.17;10.57;;;;;;;;;;5126105;28;20454;-85
2021/12/17 07:56:14;;;;;;;14.10;10.33;;;;;;;;;;5132019;28;20394;-84
2021/12/17 07:58:49;;;;;;;14.00;9.50;;;;;;;;;;5133028;28;20445;-86
2021/12/17 08:01:15;;;;;;;16.30;10.50;;;;;;;;;;5134537;28;20468;-85
2021/12/17 08:03:42;;;;;;;16.40;9.60;;;;;;;;;;5133209;28;20429;-85
2021/12/17 08:06:08;;;;;;;13.07;9.60;;;;;;;;;;5136405;28;20442;-84
2021/12/17 08:08:35;;;;;;;10.40;9.10;;;;;;;;;;5132839;28;20426;-85
2021/12/17 08:11:04;;;;;;;10.40;8.90;;;;;;;;;;5123506;28;20435;-85
2021/12/17 08:13:33;;;;;;;10.33;9.23;;;;;;;;;;5124007;28;20455;-85
2021/12/17 08:16:16;;;;;;;15.33;9.70;;;;;;;;;;5125354;28;20435;-85
2021/12/17 08:31:48;;;;;;;8.87;7.60;;;;;;;;;;5140706;28;20490;-85
2021/12/17 08:34:14;;;;;;;14.17;9.73;;;;;;;;;;5134449;28;20534;-85
2021/12/17 08:36:40;;;;;;;12.07;7.60;;;;;;;;;;5133661;28;20443;-85
2021/12/17 08:39:09;;;;;;;10.33;7.93;;;;;;;;;;5133905;28;20980;-85
2021/12/17 08:41:38;;;;;;;12.30;8.93;;;;;;;;;;5128352;28;20423;-85
2021/12/17 08:44:04;;;;;;;15.00;8.33;;;;;;;;;;5133005;27;20755;-85
2021/12/17 08:46:33;;;;;;;10.63;8.07;;;;;;;;;;5118960;28;20431;-85
2021/12/17 08:48:59;;;;;;;10.77;9.10;;;;;;;;;;5118914;28;20469;-85
2021/12/17 08:51:25;;;;;;;8.87;7.70;;;;;;;;;;5116000;28;20690;-86
2021/12/17 08:53:52;;;;;;;12.13;8.63;;;;;;;;;;5115380;28;20516;-85
2021/12/17 08:56:20;;;;;;;18.70;8.47;;;;;;;;;;5118570;28;20445;-85
2021/12/17 08:58:55;;;;;;;9.60;7.37;;;;;;;;;;5115114;28;20450;-85
2021/12/17 09:01:21;;;;;;;8.73;7.83;;;;;;;;;;5114745;28;20424;-85
2021/12/17 09:03:50;;;;;;;12.93;9.37;;;;;;;;;;5118959;28;20443;-85
2021/12/17 09:06:16;;;;;;;8.33;7.07;;;;;;;;;;5122655;28;20411;-86
2021/12/17 09:08:45;;;;;;;9.70;6.93;;;;;;;;;;5113794;28;20510;-84
2021/12/17 09:11:11;;;;;;;8.53;6.17;;;;;;;;;;5120431;28;20428;-86
2021/12/17 09:13:37;;;;;;;7.37;6.60;;;;;;;;;;5124491;28;20800;-86
2021/12/17 09:16:06;;;;;;;9.77;5.57;;;;;;;;;;5121264;28;20429;-86
2021/12/17 09:18:32;;;;;;;8.50;7.30;;;;;;;;;;5119746;28;20462;-86
2021/12/17 09:21:01;;;;;;;6.87;6.20;;;;;;;;;;5118634;28;20691;-86
2021/12/17 09:23:27;;;;;;;6.90;5.97;;;;;;;;;;5122090;28;20430;-86
2021/12/17 09:25:53;;;;;;;6.43;5.83;;;;;;;;;;5121641;28;20496;-84
2021/12/17 09:28:19;;;;;;;7.43;5.90;;;;;;;;;;5125260;28;20456;-86
2021/12/17 09:30:45;;;;;;;5.47;4.93;;;;;;;;;;5127590;28;20446;-86
2021/12/17 09:33:11;;;;;;;10.37;5.70;;;;;;;;;;5128014;28;20477;-85
2021/12/17 09:35:37;;;;;;;5.27;4.80;;;;;;;;;;5128060;28;20847;-86
2021/12/17 09:38:03;;;;;;;4.50;4.10;;;;;;;;;;5129419;28;20400;-86
2021/12/17 09:40:29;;;;;;;5.60;4.63;;;;;;;;;;5121389;28;20464;-85
2021/12/17 09:42:55;;;;;;;6.10;5.50;;;;;;;;;;5097586;28;20434;-86
2021/12/17 09:45:21;;;;;;;7.20;5.80;;;;;;;;;;5098178;28;20440;-85
2021/12/17 09:47:47;;;;;;;6.13;5.63;;;;;;;;;;5099868;28;20908;-85
2021/12/17 09:50:17;;;;;;;6.80;6.10;;;10.50;74.30;;;;;;5098514;28;20961;-85
2021/12/17 09:52:43;;;;;;;8.90;7.17;;;;;;;;;;5098755;28;21165;-85
2021/12/17 09:55:09;;;;;;;9.10;6.80;;;;;;;;;;5097607;28;20550;-85
2021/12/17 09:57:36;;;;;;;6.57;5.90;;;;;;;;;;5098165;28;20528;-85
2021/12/17 10:00:13;;;;;;;6.90;6.30;;;9.30;73.60;;;;;;5087771;28;20713;-85
2021/12/17 10:02:43;;;;;;;8.80;7.20;;;9.30;80.20;;;;;;5097645;28;20462;-85
2021/12/17 10:05:13;;;;;;;7.73;6.90;;;9.30;80.80;;;;;;5099501;28;20455;-85
2021/12/17 10:07:41;;;;;;;8.23;6.83;;;;;;;;;;5098151;28;20469;-85
2021/12/17 10:10:07;;;;;;;9.90;7.50;;;8.90;78.50;;;;;;5099155;28;20780;-85
2021/12/17 10:12:36;;;;;;;6.90;6.30;;;9.20;82.00;;;;;;5080478;28;21269;-85
2021/12/17 10:15:12;;;;;;;9.00;7.63;;;9.20;77.00;;;;;;5079150;28;20821;-85
2021/12/17 10:18:03;;;;;;;10.50;6.80;;;11.90;82.60;;;;;;5085948;28;20427;-85
2021/12/17 10:20:34;;;;;;;10.20;7.33;;;10.10;79.60;;;;;;5099236;28;21254;-85
2021/12/17 10:23:07;;;;;;;10.53;7.37;;;10.60;71.20;;;;;;5097093;28;20897;-85
2021/12/17 10:25:42;;;;;;;11.70;8.20;;;11.70;74.70;;;;;;5096505;28;20501;-85
2021/12/17 10:28:08;;;;;;;10.73;7.40;;;;;;;;;;5097055;28;20829;-85
2021/12/17 10:30:43;;;;;;;10.67;6.70;;;14.60;58.40;;;;;;5098187;28;20879;-85
2021/12/17 10:33:11;;;;;;;7.57;6.13;;;14.80;61.10;;;;;;5098900;28;20437;-85
2021/12/17 10:35:40;;;;;;;7.83;6.87;;;15.40;57.90;;;;;;5096747;28;20476;-85
2021/12/17 10:38:10;;;;;;;7.80;5.97;;;16.30;57.00;;;;;;5098934;28;20424;-85
2021/12/17 10:40:40;;;;;;;6.17;5.57;;;16.60;54.20;;;;;;5099011;28;20400;-85
2021/12/17 10:43:14;;;;;;;5.53;5.03;;;17.60;48.00;;;;;;5098757;28;20420;-86
2021/12/17 10:45:56;;;;;;;5.73;5.23;;;17.70;51.20;;;;;;5098083;28;20454;-86
2021/12/17 10:51:08;;;;;;;7.90;5.30;;;18.20;50.90;;;;;;5097884;28;20781;-86
2021/12/17 10:53:34;;;;;;;6.30;5.10;;;;;;;;;;5086503;28;20579;-86
2021/12/17 10:56:01;;;;;;;4.50;4.20;;;;;;;;;;5078478;28;21199;-86
2021/12/17 10:58:27;;;;;;;5.10;4.60;;;18.00;48.30;;;;;;5097652;28;20427;-85
2021/12/17 11:01:11;;;;;;;6.67;6.07;;;;;;;;;;5097953;28;20454;-85
2021/12/17 11:03:40;;;;;;;6.50;4.90;;;19.00;49.30;;;;;;5098392;28;21222;-86
2021/12/17 11:06:06;;;;;;;6.00;5.30;;;;;;;;;;5096507;28;20969;-86
2021/12/17 11:08:37;;;;;;;8.90;5.57;;;;;;;;;;5095889;28;20420;-86
2021/12/17 11:11:10;;;;;;;4.67;4.30;;;20.40;47.60;;;;;;5098105;28;20735;-86
2021/12/17 11:13:37;;;;;;;4.60;4.30;;;21.00;45.70;;;;;;5098095;28;20542;-83
2021/12/17 11:16:03;;;;;;;8.20;6.50;;;21.30;44.10;;;;;;5096088;28;20925;-84
2021/12/17 11:18:30;;;;;;;5.93;5.43;;;;;;;;;;5098413;28;20512;-85
2021/12/17 11:20:56;;;;;;;10.50;5.37;;;;;;;;;;5094834;28;20481;-84
2021/12/17 11:23:28;;;;;;;6.60;5.63;;;21.30;44.90;;;;;;5096601;28;20488;-86
2021/12/17 11:25:56;;;;;;;4.73;4.33;;;21.90;44.50;;;;;;5097551;28;20455;-84
2021/12/17 11:28:26;;;;;;;6.83;6.00;;;22.00;42.70;;;;;;5097131;28;20933;-84
2021/12/17 11:30:52;;;;;;;6.80;5.30;;;22.00;42.00;;;;;;5098253;28;20780;-87
2021/12/17 11:33:19;;;;;;;6.17;5.33;;;;;;;;;;5096687;28;20886;-86
2021/12/17 11:35:46;;;;;;;5.53;5.03;;;;;;;;;;5096080;28;20450;-84
2021/12/17 11:38:18;;;;;;;5.40;4.90;;;;;;;;;;5095750;28;20415;-84
2021/12/17 11:41:05;;;;;;;;;;;;;;;;;;;;;
2021/12/17 11:43:50;;;;;;;5.37;4.87;;;21.80;44.00;;;;;;5095987;28;21241;-85
2021/12/17 11:46:18;;;;;;;8.23;5.90;;;24.40;44.40;;;;;;5097335;28;20515;-86
2021/12/17 11:48:57;;;;;;;8.63;5.30;;;22.00;43.30;;;;;;5097270;28;21061;-84
2021/12/17 11:51:26;;;;;;;5.07;4.67;;;22.10;42.90;;;;;;5097262;28;20485;-84
2021/12/17 11:53:55;;;;;;;7.67;4.93;;;;;;;;;;5097040;28;20555;-84
2021/12/17 11:56:39;;;;;;;7.03;5.10;;;20.90;40.40;;;;;;5097440;28;20473;-84
2021/12/17 11:59:05;;;;;;;6.07;5.57;;;;;;;;;;5097465;28;20620;-84
2021/12/17 12:01:51;;;;;;;11.77;5.13;;;21.90;39.30;;;;;;5097473;28;21273;-84
2021/12/17 12:04:24;;;;;;;5.47;4.60;;;22.30;39.30;;;;;;5096910;28;20446;-84
2021/12/17 12:07:00;;;;;;;5.27;4.87;;;25.70;39.40;;;;;;5097329;28;20438;-85
2021/12/17 12:09:57;;;;;;;5.67;5.27;;;23.70;36.90;;;;;;5097762;28;20483;-87
2021/12/17 12:12:26;;;;;;;4.57;4.17;;;;;;;;;;5097523;28;21335;-85
2021/12/17 12:14:52;;;;;;;4.77;4.47;;;;;;;;;;5094947;28;20551;-85
2021/12/17 12:18:03;;;;;;;4.57;4.27;;;24.70;34.70;;;;;;5095754;28;20424;-84
2021/12/17 12:20:44;;;;;;;5.77;4.77;;;25.00;35.30;;;;;;5097703;28;20504;-84
2021/12/17 12:23:15;;;;;;;4.93;4.53;;;24.30;34.50;;;;;;5099237;28;20902;-84
2021/12/17 12:25:41;;;;;;;4.73;4.33;;;;;;;;;;5101036;28;20478;-85
2021/12/17 12:28:07;;;;;;;5.20;4.80;;;;;;;;;;5099476;28;20459;-85
2021/12/17 12:30:38;;;;;;;4.87;4.50;;;25.80;34.30;;;;;;5100463;28;20427;-84
2021/12/17 12:33:05;;;;;;;4.97;4.57;;;25.50;37.30;;;;;;5101475;28;20451;-84
2021/12/17 12:35:32;;;;;;;5.80;5.30;;;23.60;38.20;;;;;;5101125;28;20574;-84
2021/12/17 12:41:46;;;;;;;5.70;5.20;;;22.10;45.10;;;;;;5101471;27;1391080;-86
2021/12/17 12:44:12;;;;;;;5.47;4.93;;;;;;;;;;5107282;27;20474;-86
2021/12/17 12:46:53;;;;;;;8.10;5.07;;;19.80;43.10;;;;;;5100159;27;20460;-86
2021/12/17 12:49:42;;;;;;;7.07;5.93;;;19.40;44.80;;;;;;5113381;28;20498;-86
2021/12/17 12:52:15;;;;;;;6.10;5.50;;;;;;;;;;5106027;28;20427;-85
2021/12/17 12:54:41;;;;;;;8.00;5.87;;;;;;;;;;5096035;28;20447;-85
2021/12/17 12:57:07;;;;;;;7.13;5.63;;;;;;;;;;5115075;27;20425;-86
2021/12/17 12:59:34;;;;;;;5.80;5.30;;;20.80;47.20;;;;;;5126355;27;20455;-86
2021/12/17 13:02:00;;;;;;;6.60;5.47;;;;;;;;;;5127262;27;21306;-85
2021/12/17 13:04:31;;;;;;;13.03;5.57;;;21.70;44.20;;;;;;5115946;27;20503;-86
2021/12/17 13:06:57;;;;;;;6.00;4.90;;;;;;;;;;5093500;28;20827;-86
2021/12/17 13:09:29;;;;;;;5.60;5.10;;;;;;;;;;5093622;28;20473;-86
2021/12/17 13:11:55;;;;;;;6.53;5.67;;;;;;;;;;5108315;28;20435;-86
2021/12/17 13:14:24;;;;;;;5.83;5.27;;;;;;;;;;5113376;28;20445;-86
2021/12/17 13:17:19;;;;;;;5.80;5.20;;;;;;;;;;5111376;28;21202;-86
2021/12/17 13:22:54;;;;;;;9.97;6.90;;;;;;;;;;5095020;28;20406;-86
2021/12/17 13:25:28;;;;;;;8.50;7.00;;;16.60;48.90;;;;;;5094437;28;20582;-86
2021/12/17 13:27:55;;;;;;;8.03;6.90;;;16.10;55.50;;;;;;5093156;28;20459;-86
2021/12/17 13:30:27;;;;;;;7.20;6.10;;;15.30;57.30;;;;;;5095291;28;20997;-86
2021/12/17 13:32:54;;;;;;;7.60;6.77;;;;;;;;;;5094329;28;20487;-85
2021/12/17 13:35:21;;;;;;;8.10;7.30;;;14.10;59.50;;;;;;5092531;28;20475;-86
2021/12/17 13:37:52;;;;;;;6.57;5.97;;;;;;;;;;5092857;28;20777;-86
2021/12/17 13:40:20;;;;;;;6.47;5.87;;;;;;;;;;5092865;28;20452;-86
2021/12/17 13:42:46;;;;;;;9.07;6.27;;;;;;;;;;5092279;28;20430;-86
2021/12/17 13:45:22;;;;;;;9.73;6.70;;;16.20;52.20;;;;;;5094133;28;20802;-86
2021/12/17 13:47:59;;;;;;;8.87;6.63;;;17.80;54.30;;;;;;5094868;28;20412;-86
2021/12/17 13:50:41;;;;;;;9.20;6.43;;;18.80;51.60;;;;;;5094189;28;20424;-86
2021/12/17 13:53:17;;;;;;;7.83;7.03;;;19.10;50.10;;;;;;5078025;28;20420;-86
2021/12/17 13:55:45;;;;;;;9.30;6.60;;;19.10;49.90;;;;;;5080018;28;20443;-86
2021/12/17 13:58:18;;;;;;;8.03;6.87;;;18.40;50.60;;;;;;5078336;28;20420;-86
2021/12/17 14:00:47;;;;;;;12.40;6.77;;;18.70;52.30;;;;;;5079907;28;20482;-86
2021/12/17 14:03:16;;;;;;;9.20;6.63;;;16.10;51.70;;;;;;5080276;28;20508;-86
2021/12/17 14:05:51;;;;;;;8.30;7.10;;;;;;;;;;5080459;28;20520;-86
2021/12/17 14:08:22;;;;;;;6.67;6.07;;;16.30;50.80;;;;;;5080389;28;20450;-85
2021/12/17 14:10:49;;;;;;;6.87;6.17;;;16.60;55.40;;;;;;5079504;28;20424;-86
2021/12/17 14:13:25;;;;;;;11.30;6.97;;;16.50;50.30;;;;;;5089675;28;20431;-86
2021/12/17 14:15:53;;;;;;;9.83;6.27;;;16.40;56.10;;;;;;5100341;28;20446;-85
2021/12/17 14:18:22;;;;;;;11.00;6.23;;;15.80;57.30;;;;;;5085329;28;20429;-85
2021/12/17 14:20:50;;;;;;;8.90;6.50;;;16.00;56.70;;;;;;5079717;28;20460;-85
2021/12/17 14:23:23;;;;;;;6.70;6.10;;;15.60;56.90;;;;;;5080094;28;20413;-86
2021/12/17 14:25:49;;;;;;;8.67;7.87;;;;;;;;;;5080018;28;21173;-86
2021/12/17 14:28:21;;;;;;;8.90;7.47;;;16.20;57.00;;;;;;5089080;28;20422;-85
2021/12/17 14:30:57;;;;;;;7.87;7.10;;;15.80;56.80;;;;;;5099494;28;20508;-85
2021/12/17 14:33:29;;;;;;;11.60;7.63;;;16.10;56.20;;;;;;5100390;28;20411;-85
2021/12/17 14:35:59;;;;;;;8.57;7.77;;;16.10;57.30;;;;;;5100831;28;20435;-85
2021/12/17 14:38:48;;;;;;;9.10;7.30;;;15.60;53.20;;;;;;5100683;28;20776;-86
2021/12/17 14:41:23;;;;;;;10.30;8.43;;;15.00;60.00;;;;;;5099401;28;20463;-86
2021/12/17 14:43:56;;;;;;;21.63;9.03;;;14.10;62.00;;;;;;5104343;27;20448;-86
2021/12/17 14:46:24;;;;;;;10.07;8.13;;;14.20;60.90;;;;;;5096635;27;21317;-85
2021/12/17 14:57:13;;;;;;;8.83;7.30;;;13.70;58.10;;;;;;5101979;27;20412;-85
2021/12/17 15:05:26;;;;;;;10.40;8.30;;;9.90;77.30;;;;;;5099127;28;20504;-86
2021/12/17 15:07:54;;;;;;;14.33;9.70;;;9.80;78.50;;;;;;5095769;28;21077;-85
2021/12/17 15:10:22;;;;;;;10.30;9.20;;;;;;;;;;5096958;28;20428;-85
2021/12/17 15:12:50;;;;;;;9.50;8.50;;;6.80;78.60;;;;;;5098136;28;20426;-86
2021/12/17 15:15:20;;;;;;;8.20;7.40;;;10.00;80.30;;;;;;5079526;28;20437;-85
2021/12/17 15:17:49;;;;;;;11.03;7.47;;;9.50;80.10;;;;;;5085647;28;20443;-85
2021/12/17 15:20:18;;;;;;;14.23;8.07;;;9.30;81.00;;;;;;5078804;28;20532;-86
2021/12/17 15:22:44;;;;;;;12.40;7.90;;;;;;;;;;5077191;28;20846;-86
2021/12/17 15:25:13;;;;;;;11.47;7.03;;;8.70;83.30;;;;;;5078895;28;20566;-85
2021/12/17 15:27:40;;;;;;;11.23;8.03;;;8.90;84.40;;;;;;5095159;28;20455;-85
2021/12/17 15:30:13;;;;;;;8.37;6.40;;;8.20;78.80;;;;;;5099121;28;21028;-85
2021/12/17 15:32:39;;;;;;;8.53;7.73;;;;;;;;;;5099359;28;20841;-86
2021/12/17 15:35:05;;;;;;;9.13;6.67;;;;;;;;;;5088233;28;20451;-85
2021/12/17 15:37:31;;;;;;;7.90;7.10;;;;;;;;;;5076954;28;21136;-85
2021/12/17 15:39:57;;;;;;;10.27;8.40;;;;;;;;;;5087499;27;20474;-86
2021/12/17 15:42:23;;;;;;;14.03;9.03;;;;;;;;;;5101801;27;20451;-85
2021/12/17 15:44:53;;;;;;;8.57;7.20;;;;;;;;;;5108569;27;20531;-85
2021/12/17 15:47:19;;;;;;;10.73;7.70;;;;;;;;;;5099962;27;21022;-85
2021/12/17 15:49:45;;;;;;;13.30;7.23;;;;;;;;;;5097731;28;20422;-85
2021/12/17 15:52:14;;;;;;;8.90;7.70;;;;;;;;;;5097536;28;20451;-85
2021/12/17 15:54:41;;;;;;;9.00;6.87;;;;;;;;;;5097422;28;20439;-85
2021/12/17 16:00:33;;;;;;;9.70;7.67;;;;;;;;;;5099744;28;20883;-85
2021/12/17 16:03:30;;;;;;;10.90;8.50;;;;;;;;;;5095745;28;20427;-85
2021/12/17 16:06:23;;;;;;;13.40;8.20;;;;;;;;;;5072101;28;21048;-86
2021/12/17 16:09:33;;;;;;;10.93;8.20;;;;;;;;;;5096043;28;20419;-86
2021/12/17 16:16:51;;;;;;;13.23;8.27;;;;;;;;;;5085572;28;20531;-85
2021/12/17 16:22:35;;;;;;;;;;;;;;;;;;;;;
2021/12/17 16:25:01;;;;;;;7.70;7.00;;;;;;;;;;5077457;28;20440;-86
2021/12/17 16:27:46;;;;;;;10.93;8.40;;;;;;;;;;5076626;28;20408;-86
2021/12/17 16:30:51;;;;;;;9.17;7.90;;;;;;;;;;5081525;28;20503;-86
2021/12/17 16:33:20;;;;;;;9.73;8.77;;;;;;;;;;5029535;28;20950;-86
2021/12/17 16:35:48;;;;;;;11.70;8.20;;;;;;;;;;5097008;28;20434;-86
2021/12/17 16:38:18;;;;;;;17.33;8.70;;;;;;;;;;5091691;28;20443;-86
2021/12/17 16:40:57;;;;;;;13.83;9.37;;;;;;;;;;5078772;28;20468;-85
2021/12/17 16:43:23;;;;;;;11.63;7.77;;;;;;;;;;5077153;28;21073;-85
2021/12/17 16:46:04;;;;;;;10.83;8.20;;;;;;;;;;5054705;22;20634;-86
2021/12/17 16:48:57;;;;;;;9.83;8.83;;;;;;;;;;5032155;28;20483;-86
2021/12/17 16:51:25;;;;;;;14.60;9.37;;;;;;;;;;5032972;28;20421;-86
2021/12/17 16:53:57;;;;;;;16.53;9.97;;;;;;;;;;5036291;28;20442;-86
2021/12/17 16:56:23;;;;;;;11.57;8.63;;;;;;;;;;5036125;28;20587;-86
2021/12/17 16:58:49;;;;;;;13.87;9.43;;;;;;;;;;5036356;28;20430;-86
2021/12/17 17:01:15;;;;;;;11.10;9.20;;;;;;;;;;5037757;28;20558;-86
2021/12/17 17:03:47;;;;;;;13.03;9.63;;;;;;;;;;5036647;28;20419;-86
2021/12/17 17:06:13;;;;;;;11.90;10.60;;;;;;;;;;5037647;28;20488;-86
2021/12/17 17:08:39;;;;;;;13.57;10.80;;;;;;;;;;5038398;28;20442;-86
2021/12/17 17:11:18;;;;;;;15.33;11.03;;;;;;;;;;5030392;28;20419;-85
2021/12/17 17:13:47;;;;;;;17.80;9.57;;;;;;;;;;5025676;28;20438;-85
2021/12/17 17:16:21;;;;;;;10.70;9.07;;;;;;;;;;5029516;28;20997;-86
2021/12/17 17:19:10;;;;;;;15.03;9.30;;;;;;;;;;5023185;28;20415;-84
2021/12/17 17:21:46;;;;;;;;;;;;;;;;;;;;;
2021/12/17 17:24:27;;;;;;;15.40;10.07;;;;;;;;;;5017796;28;20557;-85
2021/12/17 17:26:53;;;;;;;9.23;8.37;;;;;;;;;;5018124;28;20415;-85
2021/12/17 17:29:27;;;;;;;14.10;9.30;;;;;;;;;;5022129;28;20485;-85
2021/12/17 17:32:25;;;;;;;12.60;9.60;;;;;;;;;;5025479;28;20872;-85
2021/12/17 17:34:55;;;;;;;10.00;8.60;;;;;;;;;;5024939;28;20427;-86
2021/12/17 17:37:29;;;;;;;9.77;8.77;;;;;;;;;;5024197;28;20427;-84
2021/12/17 17:39:55;;;;;;;13.83;8.80;;;;;;;;;;5026898;28;20924;-84
2021/12/17 17:42:40;;;;;;;10.77;9.67;;;;;;;;;;5020281;28;20431;-84
2021/12/17 17:45:11;;;;;;;9.47;8.20;;;;;;;;;;5021977;28;20451;-84
2021/12/17 17:47:37;;;;;;;14.80;9.10;;;;;;;;;;5020595;28;20605;-84